Time;durP1;ratioP1;P1;durP2;ratioP2;P2;SDS_P1;SDS_P2;PMS_P1;PMS_P2;Temp;Humidity;BMP_temperature;BMP_pressure;BME280_temperature;BME280_humidity;BME280_pressure;Samples;Min_cycle;Max_cycle;Signal;HPM_P1;HPM_P2
2022/09/14 00:00:28;;;;;;;;;;;20.60;60.90;;;;;;5124293;27;20274;-70
2022/09/14 00:02:54;;;;;;;;;;;20.60;61.10;;;;;;5127066;27;19911;-70
2022/09/14 00:05:20;;;;;;;;;;;20.70;61.30;;;;;;5125745;27;19911;-70
2022/09/14 00:07:45;;;;;;;;;;;20.60;61.30;;;;;;5126445;27;20354;-70
2022/09/14 00:10:11;;;;;;;;;;;20.60;61.10;;;;;;5106334;27;19914;-70
2022/09/14 00:12:36;;;;;;;;;;;20.60;61.10;;;;;;5123645;27;20366;-70
2022/09/14 00:15:02;;;;;;;;;;;20.70;61.20;;;;;;5115887;28;20270;-70
2022/09/14 00:17:28;;;;;;;;;;;20.70;61.30;;;;;;5115878;28;19904;-70
2022/09/14 00:19:54;;;;;;;;;;;20.70;61.30;;;;;;5115758;28;19904;-70
2022/09/14 00:22:19;;;;;;;;;;;20.60;61.30;;;;;;5097484;28;20026;-70
2022/09/14 00:24:45;;;;;;;;;;;20.70;61.40;;;;;;5115733;28;19904;-70
2022/09/14 00:27:10;;;;;;;;;;;20.60;61.30;;;;;;5115712;28;19908;-70
2022/09/14 00:29:36;;;;;;;;;;;20.60;61.30;;;;;;5115465;28;20356;-70
2022/09/14 00:32:02;;;;;;;;;;;20.60;62.10;;;;;;5097076;28;20302;-70
2022/09/14 00:34:27;;;;;;;;;;;20.60;61.40;;;;;;5127879;27;20301;-70
2022/09/14 00:36:53;;;;;;;;;;;20.50;61.50;;;;;;5135939;27;19903;-70
2022/09/14 00:39:20;;;;;;;;;;;20.50;61.70;;;;;;5135986;27;19998;-70
2022/09/14 00:41:47;;;;;;;;;;;20.50;61.80;;;;;;5135926;27;19943;-70
2022/09/14 00:44:12;;;;;;;;;;;20.50;61.80;;;;;;5135946;27;20030;-70
2022/09/14 00:46:45;;;;;;;;;;;20.50;62.00;;;;;;5135855;27;20366;-70
2022/09/14 00:49:17;;;;;;;;;;;20.50;62.10;;;;;;5135826;27;19903;-71
2022/09/14 00:52:09;;;;;;;;;;;20.60;62.10;;;;;;5117524;27;19952;-71
2022/09/14 00:54:38;;;;;;;;;;;20.60;62.10;;;;;;5124552;27;20335;-71
2022/09/14 00:57:03;;;;;;;;;;;20.60;62.10;;;;;;5118104;27;20312;-71
2022/09/14 00:59:31;;;;;;;;;;;20.60;62.10;;;;;;5129866;27;19908;-71
2022/09/14 01:01:57;;;;;;;;;;;20.70;62.10;;;;;;5115820;28;20347;-71
2022/09/14 01:04:23;;;;;;;;;;;20.70;62.10;;;;;;5115719;28;19911;-71
2022/09/14 01:07:07;;;;;;;;;;;20.80;62.10;;;;;;5115642;28;19914;-71
2022/09/14 01:09:48;;;;;;;;;;;20.80;62.10;;;;;;5097236;28;20385;-71
2022/09/14 01:12:19;;;;;;;;;;;20.80;62.10;;;;;;5115631;28;20045;-71
2022/09/14 01:14:54;;;;;;;;;;;20.80;62.00;;;;;;5115553;28;19972;-71
2022/09/14 01:17:25;;;;;;;;;;;20.80;62.00;;;;;;5115508;28;19904;-71
2022/09/14 01:20:01;;;;;;;;;;;20.80;62.00;;;;;;5115454;28;19911;-71
2022/09/14 01:22:39;;;;;;;;;;;20.80;62.00;;;;;;5115479;28;19910;-71
2022/09/14 01:25:16;;;;;;;;;;;20.80;62.00;;;;;;5115411;28;19903;-71
2022/09/14 01:27:42;;;;;;;;;;;20.80;62.00;;;;;;5115668;28;20279;-71
2022/09/14 01:30:10;;;;;;;;;;;20.80;62.10;;;;;;5125029;27;19950;-71
2022/09/14 01:32:51;;;;;;;;;;;20.80;62.10;;;;;;5135558;27;19919;-72
2022/09/14 01:35:28;;;;;;;;;;;20.80;62.20;;;;;;5135655;27;19903;-71
2022/09/14 01:38:00;;;;;;;;;;;20.80;62.20;;;;;;5135689;27;19903;-71
2022/09/14 01:40:28;;;;;;;;;;;20.90;62.30;;;;;;5135608;27;20017;-70
2022/09/14 01:42:57;;;;;;;;;;;20.90;62.30;;;;;;5135589;27;19990;-71
2022/09/14 01:45:25;;;;;;;;;;;20.90;62.30;;;;;;5119282;27;19908;-71
2022/09/14 01:47:54;;;;;;;;;;;20.90;62.30;;;;;;5114955;28;20389;-71
2022/09/14 01:50:30;;;;;;;;;;;20.90;62.30;;;;;;5114811;28;19933;-71
2022/09/14 01:53:24;;;;;;;;;;;20.90;62.30;;;;;;5114875;28;19943;-71
2022/09/14 01:56:23;;;;;;;;;;;21.00;62.30;;;;;;5074776;28;19903;-70
2022/09/14 01:58:48;;;;;;;;;;;21.00;62.30;;;;;;5012442;28;19909;-71
2022/09/14 02:01:18;;;;;;;;;;;21.00;62.30;;;;;;4995925;28;19905;-71
2022/09/14 02:03:46;;;;;;;;;;;21.00;62.30;;;;;;5012071;28;19916;-71
2022/09/14 02:06:16;;;;;;;;;;;21.00;62.30;;;;;;5031385;28;19905;-71
2022/09/14 02:08:42;;;;;;;;;;;21.00;62.20;;;;;;5031889;28;19996;-71
2022/09/14 02:11:07;;;;;;;;;;;21.00;62.20;;;;;;5031724;28;20016;-71
2022/09/14 02:13:33;;;;;;;;;;;21.00;62.20;;;;;;5031875;28;19940;-71
2022/09/14 02:15:59;;;;;;;;;;;21.00;62.30;;;;;;5031746;28;19916;-71
2022/09/14 02:18:24;;;;;;;;;;;21.00;62.30;;;;;;5015139;28;19909;-71
2022/09/14 02:21:11;;;;;;;;;;;21.00;62.30;;;;;;5014843;28;20434;-71
2022/09/14 02:23:37;;;;;;;;;;;21.00;62.20;;;;;;5031497;28;19905;-71
2022/09/14 02:26:03;;;;;;;;;;;21.00;62.30;;;;;;5031353;28;19939;-71
2022/09/14 02:28:29;;;;;;;;;;;20.90;62.30;;;;;;5031373;28;20008;-71
2022/09/14 02:31:03;;;;;;;;;;;20.90;62.30;;;;;;5029724;28;20016;-70
2022/09/14 02:33:44;;;;;;;;;;;20.90;62.30;;;;;;5022463;28;20681;-71
2022/09/14 02:36:16;;;;;;;;;;;20.90;63.20;;;;;;5093726;28;19971;-71
2022/09/14 02:38:55;;;;;;;;;;;20.80;62.50;;;;;;5093689;28;19944;-71
2022/09/14 02:41:27;;;;;;;;;;;20.80;62.50;;;;;;5092418;28;19911;-71
2022/09/14 02:43:52;;;;;;;;;;;20.80;62.70;;;;;;5093662;28;19904;-71
2022/09/14 02:46:36;;;;;;;;;;;20.80;62.70;;;;;;5093580;28;20430;-71
2022/09/14 02:49:16;;;;;;;;;;;20.80;62.70;;;;;;5093488;28;20375;-71
2022/09/14 02:51:41;;;;;;;;;;;20.80;62.90;;;;;;5093545;28;19912;-71
2022/09/14 02:54:13;;;;;;;;;;;20.80;62.90;;;;;;5093502;28;19954;-71
2022/09/14 02:56:39;;;;;;;;;;;20.80;62.90;;;;;;5093438;28;19908;-71
2022/09/14 02:59:04;;;;;;;;;;;20.80;62.90;;;;;;5093323;28;20320;-71
2022/09/14 03:01:30;;;;;;;;;;;20.80;62.90;;;;;;5093426;28;19908;-71
2022/09/14 03:03:55;;;;;;;;;;;20.70;62.80;;;;;;5093323;28;19916;-71
2022/09/14 03:06:21;;;;;;;;;;;20.70;62.90;;;;;;5093209;28;20279;-71
2022/09/14 03:08:47;;;;;;;;;;;20.70;62.80;;;;;;5093278;28;19904;-71
2022/09/14 03:11:13;;;;;;;;;;;20.70;62.80;;;;;;5093124;28;19908;-71
2022/09/14 03:13:39;;;;;;;;;;;20.60;62.80;;;;;;5093116;28;19915;-71
2022/09/14 03:16:06;;;;;;;;;;;20.60;62.80;;;;;;5094535;28;19920;-70
2022/09/14 03:18:32;;;;;;;;;;;20.60;62.80;;;;;;5097413;28;19965;-70
2022/09/14 03:21:02;;;;;;;;;;;20.50;62.80;;;;;;5096083;28;19904;-70
2022/09/14 03:23:27;;;;;;;;;;;20.50;63.10;;;;;;5097251;28;19904;-70
2022/09/14 03:25:53;;;;;;;;;;;20.50;63.20;;;;;;5097229;28;20351;-71
2022/09/14 03:28:19;;;;;;;;;;;20.50;63.30;;;;;;5097231;28;19961;-71
2022/09/14 03:30:44;;;;;;;;;;;20.60;63.40;;;;;;5095682;28;19908;-71
2022/09/14 03:33:10;;;;;;;;;;;20.50;63.40;;;;;;5109240;28;19930;-71
2022/09/14 03:35:35;;;;;;;;;;;20.60;63.50;;;;;;5123725;27;19911;-71
2022/09/14 03:38:02;;;;;;;;;;;20.60;63.50;;;;;;5137789;27;19948;-71
2022/09/14 03:40:27;;;;;;;;;;;20.60;63.60;;;;;;5137879;27;20370;-71
2022/09/14 03:42:53;;;;;;;;;;;20.60;63.60;;;;;;5137823;27;19911;-71
2022/09/14 03:45:19;;;;;;;;;;;20.60;63.60;;;;;;5137710;27;20434;-71
2022/09/14 03:47:45;;;;;;;;;;;20.60;63.60;;;;;;5137772;27;19910;-71
2022/09/14 03:50:11;;;;;;;;;;;20.60;63.70;;;;;;5137407;27;19914;-71
2022/09/14 03:52:37;;;;;;;;;;;20.60;63.70;;;;;;5137376;27;19926;-71
2022/09/14 03:55:04;;;;;;;;;;;20.60;63.70;;;;;;5137417;27;19904;-70
2022/09/14 03:57:29;;;;;;;;;;;20.60;64.10;;;;;;5137541;27;19903;-70
2022/09/14 03:59:55;;;;;;;;;;;20.70;63.80;;;;;;5136597;27;19907;-71
2022/09/14 04:02:20;;;;;;;;;;;20.70;63.80;;;;;;5126352;27;20368;-71
2022/09/14 04:04:47;;;;;;;;;;;20.70;63.80;;;;;;5116784;28;19911;-71
2022/09/14 04:07:14;;;;;;;;;;;20.70;63.70;;;;;;5116918;28;20324;-71
2022/09/14 04:09:40;;;;;;;;;;;20.70;63.80;;;;;;5116709;28;19908;-71
2022/09/14 04:12:05;;;;;;;;;;;20.70;63.80;;;;;;5098271;28;19903;-71
2022/09/14 04:14:31;;;;;;;;;;;20.70;63.80;;;;;;5116626;28;19903;-70
2022/09/14 04:16:57;;;;;;;;;;;20.70;63.80;;;;;;5098400;28;20002;-71
2022/09/14 04:19:22;;;;;;;;;;;20.80;63.80;;;;;;5116576;28;19911;-71
2022/09/14 04:21:48;;;;;;;;;;;20.70;63.70;;;;;;5116534;28;20404;-71
2022/09/14 04:24:14;;;;;;;;;;;20.80;63.80;;;;;;5116398;28;19976;-71
2022/09/14 04:26:39;;;;;;;;;;;20.80;63.80;;;;;;5116382;28;19939;-71
2022/09/14 04:29:05;;;;;;;;;;;20.80;63.90;;;;;;5116331;28;20328;-71
2022/09/14 04:31:31;;;;;;;;;;;20.80;63.90;;;;;;5098020;28;19912;-70
2022/09/14 04:33:57;;;;;;;;;;;20.80;63.90;;;;;;5116201;28;19916;-71
2022/09/14 04:36:27;;;;;;;;;;;20.70;63.90;;;;;;5116229;28;20363;-71
2022/09/14 04:38:53;;;;;;;;;;;20.80;63.90;;;;;;5116176;28;20003;-71
2022/09/14 04:41:19;;;;;;;;;;;20.80;63.90;;;;;;5116164;28;19914;-71
2022/09/14 04:43:46;;;;;;;;;;;20.80;63.90;;;;;;5116068;28;20385;-71
2022/09/14 04:46:14;;;;;;;;;;;20.80;63.90;;;;;;5097742;28;19939;-70
2022/09/14 04:48:39;;;;;;;;;;;20.80;63.90;;;;;;5115988;28;20355;-71
2022/09/14 04:51:09;;;;;;;;;;;20.80;63.90;;;;;;5115917;28;19915;-71
2022/09/14 04:53:36;;;;;;;;;;;20.80;63.90;;;;;;5115973;28;19953;-71
2022/09/14 04:56:02;;;;;;;;;;;20.80;64.00;;;;;;5115873;28;19932;-71
2022/09/14 04:58:28;;;;;;;;;;;20.80;63.90;;;;;;5097561;28;20281;-71
2022/09/14 05:01:04;;;;;;;;;;;20.80;63.90;;;;;;5115556;28;20006;-71
2022/09/14 05:03:29;;;;;;;;;;;20.80;64.00;;;;;;5115712;28;20432;-71
2022/09/14 05:05:59;;;;;;;;;;;20.80;64.00;;;;;;5115608;28;19908;-71
2022/09/14 05:08:25;;;;;;;;;;;20.80;64.00;;;;;;5115555;28;19904;-71
2022/09/14 05:10:53;;;;;;;;;;;20.80;64.10;;;;;;5097116;28;19953;-71
2022/09/14 05:13:19;;;;;;;;;;;20.80;64.10;;;;;;5115460;28;19907;-70
2022/09/14 05:15:44;;;;;;;;;;;20.80;64.20;;;;;;5115812;28;19928;-70
2022/09/14 05:18:10;;;;;;;;;;;20.80;64.20;;;;;;5097011;28;19904;-70
2022/09/14 05:20:36;;;;;;;;;;;20.80;64.20;;;;;;5115380;28;19915;-71
2022/09/14 05:23:01;;;;;;;;;;;20.90;64.30;;;;;;5096761;27;20417;-70
2022/09/14 05:25:27;;;;;;;;;;;20.90;64.30;;;;;;5115117;28;19908;-70
2022/09/14 05:27:52;;;;;;;;;;;20.90;64.30;;;;;;5132340;27;20282;-70
2022/09/14 05:30:18;;;;;;;;;;;20.90;64.30;;;;;;5125193;27;19998;-70
2022/09/14 05:32:44;;;;;;;;;;;20.90;64.30;;;;;;5114839;28;19923;-70
2022/09/14 05:35:10;;;;;;;;;;;21.00;64.50;;;;;;5114836;28;20400;-70
2022/09/14 05:37:35;;;;;;;;;;;21.00;64.40;;;;;;5114789;28;19918;-70
2022/09/14 05:40:01;;;;;;;;;;;21.00;64.50;;;;;;5096108;28;19904;-70
2022/09/14 05:42:27;;;;;;;;;;;21.00;64.50;;;;;;5096443;28;19903;-70
2022/09/14 05:44:52;;;;;;;;;;;21.00;64.50;;;;;;5096355;28;20418;-69
2022/09/14 05:47:18;;;;;;;;;;;21.10;64.60;;;;;;5115987;27;20011;-70
2022/09/14 05:49:43;;;;;;;;;;;21.10;64.60;;;;;;5131058;27;20358;-70
2022/09/14 05:52:09;;;;;;;;;;;21.20;64.60;;;;;;5134987;27;19903;-70
2022/09/14 05:54:35;;;;;;;;;;;21.20;64.60;;;;;;5135068;27;19908;-70
2022/09/14 05:57:00;;;;;;;;;;;21.30;64.60;;;;;;5121543;27;19908;-69
2022/09/14 05:59:30;;;;;;;;;;;21.30;64.60;;;;;;5115371;27;20375;-70
2022/09/14 06:01:56;;;;;;;;;;;21.40;64.60;;;;;;5127144;27;20165;-69
2022/09/14 06:04:22;;;;;;;;;;;21.50;64.60;;;;;;5134819;27;19907;-69
2022/09/14 06:06:48;;;;;;;;;;;21.50;64.60;;;;;;5124341;27;19915;-70
2022/09/14 06:09:14;;;;;;;;;;;21.60;64.70;;;;;;5123781;27;20052;-69
2022/09/14 06:11:40;;;;;;;;;;;21.70;64.90;;;;;;5104481;27;19903;-70
2022/09/14 06:14:06;;;;;;;;;;;21.80;64.50;;;;;;5122782;27;20395;-70
2022/09/14 06:16:32;;;;;;;;;;;21.80;64.30;;;;;;5106700;27;19965;-70
2022/09/14 06:18:58;;;;;;;;;;;21.90;64.20;;;;;;5122694;27;19911;-70
2022/09/14 06:21:27;;;;;;;;;;;22.00;64.10;;;;;;5103075;27;19938;-70
2022/09/14 06:23:53;;;;;;;;;;;22.00;64.80;;;;;;5124756;27;20278;-70
2022/09/14 06:26:19;;;;;;;;;;;22.10;64.10;;;;;;5125882;27;19918;-70
2022/09/14 06:28:45;;;;;;;;;;;22.20;64.00;;;;;;5111213;27;20304;-70
2022/09/14 06:31:11;;;;;;;;;;;22.30;63.90;;;;;;5117176;27;20382;-70
2022/09/14 06:33:37;;;;;;;;;;;22.40;63.60;;;;;;5126945;27;19962;-70
2022/09/14 06:36:06;;;;;;;;;;;22.40;63.20;;;;;;5134698;27;20374;-70
2022/09/14 06:38:31;;;;;;;;;;;22.50;63.00;;;;;;5134663;27;19968;-70
2022/09/14 06:40:58;;;;;;;;;;;22.50;62.80;;;;;;5134620;27;20358;-70
2022/09/14 06:43:25;;;;;;;;;;;22.50;62.70;;;;;;5133555;27;20370;-70
2022/09/14 06:46:14;;;;;;;;;;;22.50;62.60;;;;;;5133762;27;19915;-70
2022/09/14 06:48:44;;;;;;;;;;;22.50;62.60;;;;;;5120743;27;19908;-70
2022/09/14 06:51:36;;;;;;;;;;;22.60;62.50;;;;;;5133868;27;19907;-70
2022/09/14 06:54:02;;;;;;;;;;;22.60;62.50;;;;;;5129453;27;19907;-70
2022/09/14 06:56:29;;;;;;;;;;;22.60;62.30;;;;;;5115965;28;19942;-70
2022/09/14 06:58:56;;;;;;;;;;;22.60;62.30;;;;;;5116450;28;19904;-70
2022/09/14 07:01:22;;;;;;;;;;;22.70;62.30;;;;;;5095444;28;19908;-70
2022/09/14 07:03:50;;;;;;;;;;;22.70;62.40;;;;;;5113699;28;20380;-70
2022/09/14 07:06:17;;;;;;;;;;;22.70;62.30;;;;;;5114043;28;19903;-70
2022/09/14 07:08:43;;;;;;;;;;;22.80;62.30;;;;;;5095505;28;19950;-69
2022/09/14 07:11:10;;;;;;;;;;;22.80;62.20;;;;;;5095361;28;19965;-70
2022/09/14 07:13:35;;;;;;;;;;;22.80;62.10;;;;;;5113589;28;20389;-70
2022/09/14 07:16:04;;;;;;;;;;;22.90;62.10;;;;;;5132088;28;19935;-70
2022/09/14 07:18:33;;;;;;;;;;;22.90;61.90;;;;;;5134211;28;19910;-70
2022/09/14 07:21:05;;;;;;;;;;;23.00;62.00;;;;;;5115831;28;20559;-70
2022/09/14 07:23:31;;;;;;;;;;;23.10;61.80;;;;;;5133950;28;19918;-70
2022/09/14 07:26:01;;;;;;;;;;;23.10;61.40;;;;;;5134108;28;19903;-70
2022/09/14 07:28:26;;;;;;;;;;;23.10;61.20;;;;;;5134101;28;19911;-70
2022/09/14 07:30:52;;;;;;;;;;;23.00;60.90;;;;;;5118329;28;20358;-70
2022/09/14 07:33:17;;;;;;;;;;;23.00;60.80;;;;;;5113281;28;19916;-70
2022/09/14 07:35:43;;;;;;;;;;;22.90;60.70;;;;;;5113499;28;19904;-70
2022/09/14 07:38:09;;;;;;;;;;;22.90;60.70;;;;;;5113374;28;19907;-70
2022/09/14 07:40:34;;;;;;;;;;;22.90;60.80;;;;;;5095121;28;20395;-70
2022/09/14 07:43:00;;;;;;;;;;;22.80;60.90;;;;;;5095254;28;20285;-70
2022/09/14 07:45:26;;;;;;;;;;;22.80;60.80;;;;;;5113429;28;19943;-70
2022/09/14 07:47:51;;;;;;;;;;;22.70;60.80;;;;;;5113347;28;20380;-70
2022/09/14 07:50:17;;;;;;;;;;;22.70;60.90;;;;;;5113283;28;19914;-70
2022/09/14 07:52:43;;;;;;;;;;;22.70;61.10;;;;;;5095171;28;19939;-70
2022/09/14 07:55:10;;;;;;;;;;;22.70;61.10;;;;;;5113314;28;20351;-70
2022/09/14 07:57:36;;;;;;;;;;;22.60;61.00;;;;;;5113159;28;19910;-70
2022/09/14 08:00:02;;;;;;;;;;;22.60;61.10;;;;;;5113041;28;19908;-70
2022/09/14 08:02:28;;;;;;;;;;;22.60;61.20;;;;;;5114965;28;20366;-70
2022/09/14 08:04:53;;;;;;;;;;;22.50;62.10;;;;;;5098702;28;19904;-70
2022/09/14 08:07:19;;;;;;;;;;;22.50;61.50;;;;;;5116883;28;19904;-70
2022/09/14 08:09:45;;;;;;;;;;;22.60;61.60;;;;;;5098337;28;19998;-70
2022/09/14 08:12:14;;;;;;;;;;;22.60;62.50;;;;;;5116580;28;19968;-70
2022/09/14 08:14:40;;;;;;;;;;;22.60;61.90;;;;;;5116766;28;19907;-70
2022/09/14 08:17:06;;;;;;;;;;;22.60;62.00;;;;;;5116820;28;20394;-70
2022/09/14 08:19:32;;;;;;;;;;;22.60;62.10;;;;;;5116688;28;19989;-70
2022/09/14 08:21:57;;;;;;;;;;;22.60;62.10;;;;;;5098410;28;19952;-70
2022/09/14 08:24:23;;;;;;;;;;;22.60;62.20;;;;;;5116684;28;19939;-70
2022/09/14 08:26:48;;;;;;;;;;;22.70;62.20;;;;;;5116650;28;19908;-70
2022/09/14 08:29:15;;;;;;;;;;;22.70;62.30;;;;;;5116473;28;19995;-70
2022/09/14 08:31:43;;;;;;;;;;;22.80;62.70;;;;;;5097896;28;19912;-70
2022/09/14 08:34:08;;;;;;;;;;;22.90;63.00;;;;;;5116472;28;20581;-70
2022/09/14 08:36:38;;;;;;;;;;;23.00;63.10;;;;;;5116440;28;19998;-70
2022/09/14 08:39:05;;;;;;;;;;;23.10;63.80;;;;;;5116397;28;20365;-70
2022/09/14 08:41:33;;;;;;;;;;;23.30;62.90;;;;;;5116317;28;19960;-70
2022/09/14 08:44:01;;;;;;;;;;;23.40;62.90;;;;;;5116268;28;19907;-70
2022/09/14 08:46:30;;;;;;;;;;;23.50;63.00;;;;;;5116185;28;19986;-70
2022/09/14 08:48:56;;;;;;;;;;;23.60;62.70;;;;;;5097935;28;19903;-70
2022/09/14 08:51:21;;;;;;;;;;;23.80;62.60;;;;;;5116068;28;20289;-70
2022/09/14 08:53:49;;;;;;;;;;;23.90;62.40;;;;;;5116047;28;19904;-70
2022/09/14 08:56:16;;;;;;;;;;;24.10;62.10;;;;;;5115937;28;20366;-70
2022/09/14 08:59:00;;;;;;;;;;;24.20;61.90;;;;;;5115988;28;19946;-70
2022/09/14 09:01:34;;;;;;;;;;;24.30;61.60;;;;;;5115810;27;19930;-70
2022/09/14 09:04:05;;;;;;;;;;;24.50;61.60;;;;;;5134391;27;19998;-70
2022/09/14 09:06:49;;;;;;;;;;;24.60;61.20;;;;;;5136408;27;19911;-70
2022/09/14 09:09:34;;;;;;;;;;;24.70;61.00;;;;;;5136258;27;19903;-70
2022/09/14 09:11:59;;;;;;;;;;;24.90;60.80;;;;;;5135746;27;19912;-70
2022/09/14 09:14:37;;;;;;;;;;;25.00;60.60;;;;;;5134391;27;20002;-70
2022/09/14 09:17:23;;;;;;;;;;;25.10;60.00;;;;;;5136169;27;19903;-70
2022/09/14 09:19:52;;;;;;;;;;;25.20;59.90;;;;;;5100509;28;20293;-70
2022/09/14 09:22:20;;;;;;;;;;;25.30;59.70;;;;;;5115556;28;19903;-70
2022/09/14 09:24:47;;;;;;;;;;;25.40;59.60;;;;;;5115513;28;19904;-70
2022/09/14 09:27:14;;;;;;;;;;;25.50;59.40;;;;;;5115429;28;19904;-70
2022/09/14 09:29:39;;;;;;;;;;;25.50;59.40;;;;;;5115133;28;19965;-71
2022/09/14 09:32:07;;;;;;;;;;;25.70;59.70;;;;;;5115309;28;19912;-70
2022/09/14 09:34:34;;;;;;;;;;;25.90;59.50;;;;;;5115365;28;19915;-70
2022/09/14 09:36:59;;;;;;;;;;;26.00;59.20;;;;;;5096950;28;19988;-71
2022/09/14 09:39:25;;;;;;;;;;;26.20;58.90;;;;;;5096846;28;19945;-71
2022/09/14 09:42:02;;;;;;;;;;;26.40;58.70;;;;;;5115130;28;20472;-71
2022/09/14 09:44:27;;;;;;;;;;;26.60;58.60;;;;;;5115055;28;19904;-71
2022/09/14 09:46:54;;;;;;;;;;;26.70;58.30;;;;;;5115009;28;19903;-70
2022/09/14 09:49:34;;;;;;;;;;;26.90;58.00;;;;;;5096545;28;19904;-70
2022/09/14 09:52:14;;;;;;;;;;;27.00;57.60;;;;;;5114914;28;19904;-70
2022/09/14 09:54:41;;;;;;;;;;;27.20;57.20;;;;;;5114788;28;19908;-70
2022/09/14 09:57:19;;;;;;;;;;;27.20;56.90;;;;;;5114879;28;19904;-70
2022/09/14 09:59:45;;;;;;;;;;;27.30;56.70;;;;;;5096436;28;19908;-70
2022/09/14 10:02:22;;;;;;;;;;;27.40;56.50;;;;;;5114717;28;19904;-70
2022/09/14 10:04:58;;;;;;;;;;;27.50;56.40;;;;;;5096414;28;19986;-70
2022/09/14 10:07:24;;;;;;;;;;;27.60;56.10;;;;;;5114669;28;19999;-70
2022/09/14 10:10:16;;;;;;;;;;;27.70;56.10;;;;;;5114443;28;19914;-70
2022/09/14 10:12:55;;;;;;;;;;;27.80;56.10;;;;;;5109256;28;19911;-70
2022/09/14 10:15:24;;;;;;;;;;;27.90;55.90;;;;;;5096222;28;19908;-70
2022/09/14 10:17:55;;;;;;;;;;;28.10;55.80;;;;;;5114507;28;19908;-71
2022/09/14 10:20:22;;;;;;;;;;;28.20;55.40;;;;;;5114366;28;19904;-71
2022/09/14 10:22:48;;;;;;;;;;;28.30;55.20;;;;;;5114418;28;19903;-70
2022/09/14 10:25:13;;;;;;;;;;;28.40;54.90;;;;;;5114099;28;20282;-71
2022/09/14 10:27:40;;;;;;;;;;;28.50;54.70;;;;;;5120812;27;20444;-70
2022/09/14 10:30:11;;;;;;;;;;;28.60;54.50;;;;;;5125200;27;19935;-70
2022/09/14 10:32:37;;;;;;;;;;;28.70;54.10;;;;;;5095591;28;19958;-70
2022/09/14 10:35:10;;;;;;;;;;;28.80;53.60;;;;;;5114146;28;20378;-70
2022/09/14 10:37:36;;;;;;;;;;;28.90;53.40;;;;;;5095454;28;19911;-70
2022/09/14 10:40:01;;;;;;;;;;;29.00;53.30;;;;;;5095405;28;20297;-70
2022/09/14 10:42:56;;;;;;;;;;;29.00;53.10;;;;;;5113817;28;19943;-70
2022/09/14 10:45:28;;;;;;;;;;;29.10;52.90;;;;;;5011154;28;19996;-71
2022/09/14 10:48:05;;;;;;;;;;;29.20;52.60;;;;;;5011446;28;20020;-70
2022/09/14 10:50:40;;;;;;;;;;;29.20;52.40;;;;;;5011419;28;19909;-70
2022/09/14 10:53:11;;;;;;;;;;;29.30;52.00;;;;;;5042015;28;19904;-71
2022/09/14 10:55:49;;;;;;;;;;;29.30;51.90;;;;;;5051208;28;20031;-72
2022/09/14 10:58:16;;;;;;;;;;;29.40;52.00;;;;;;5034523;28;19905;-70
2022/09/14 11:00:56;;;;;;;;;;;29.40;51.80;;;;;;5027034;28;19909;-69
2022/09/14 11:03:28;;;;;;;;;;;29.40;51.30;;;;;;5011323;28;19960;-69
2022/09/14 11:05:54;;;;;;;;;;;29.50;51.30;;;;;;5011415;28;19912;-69
2022/09/14 11:08:24;;;;;;;;;;;29.50;51.10;;;;;;5011252;28;19996;-71
2022/09/14 11:11:08;;;;;;;;;;;29.50;50.80;;;;;;5011130;28;20011;-69
2022/09/14 11:13:54;;;;;;;;;;;29.50;50.60;;;;;;5011202;28;20000;-69
2022/09/14 11:16:22;;;;;;;;;;;29.50;50.40;;;;;;5010841;28;19906;-69
2022/09/14 11:19:06;;;;;;;;;;;29.40;50.40;;;;;;5011310;28;19906;-70
2022/09/14 11:21:40;;;;;;;;;;;29.40;50.10;;;;;;5053082;28;19904;-70
2022/09/14 11:24:22;;;;;;;;;;;29.40;49.90;;;;;;5113435;28;19903;-70
2022/09/14 11:27:07;;;;;;;;;;;29.30;49.70;;;;;;5095107;28;19910;-70
2022/09/14 11:29:37;;;;;;;;;;;29.30;49.70;;;;;;5112966;28;19904;-70
2022/09/14 11:32:03;;;;;;;;;;;29.30;50.00;;;;;;5113600;28;19999;-70
2022/09/14 11:34:33;;;;;;;;;;;29.30;50.10;;;;;;5113401;28;19908;-70
2022/09/14 11:37:02;;;;;;;;;;;29.40;50.00;;;;;;5114716;28;19914;-70
2022/09/14 11:39:34;;;;;;;;;;;29.50;49.70;;;;;;5117427;28;19949;-70
2022/09/14 11:42:29;;;;;;;;;;;29.60;49.50;;;;;;5117457;28;20460;-70
2022/09/14 11:45:15;;;;;;;;;;;29.60;49.10;;;;;;5095255;28;19910;-71
2022/09/14 11:47:44;;;;;;;;;;;29.70;49.10;;;;;;5099370;28;19943;-70
2022/09/14 11:50:21;;;;;;;;;;;29.70;48.70;;;;;;5098812;28;20397;-70
2022/09/14 11:52:51;;;;;;;;;;;29.70;48.60;;;;;;5098943;28;19933;-70
2022/09/14 11:55:17;;;;;;;;;;;29.70;48.50;;;;;;5117487;28;20373;-70
2022/09/14 11:57:44;;;;;;;;;;;29.70;48.40;;;;;;5099177;28;19926;-70
2022/09/14 12:00:19;;;;;;;;;;;29.70;48.10;;;;;;5098703;28;20379;-70
2022/09/14 12:02:56;;;;;;;;;;;29.80;48.00;;;;;;5098873;28;20271;-70
2022/09/14 12:05:22;;;;;;;;;;;29.70;47.80;;;;;;5116912;28;19908;-71
2022/09/14 12:07:56;;;;;;;;;;;29.70;47.90;;;;;;5116859;28;20368;-70
2022/09/14 12:10:22;;;;;;;;;;;29.70;48.10;;;;;;5116851;28;20388;-70
2022/09/14 12:12:51;;;;;;;;;;;29.60;48.10;;;;;;5116850;28;19994;-70
2022/09/14 12:15:28;;;;;;;;;;;29.60;48.20;;;;;;5098457;28;19904;-70
2022/09/14 12:18:00;;;;;;;;;;;29.60;48.70;;;;;;5116638;28;20349;-70
2022/09/14 12:20:34;;;;;;;;;;;29.50;47.70;;;;;;5116701;28;19904;-70
2022/09/14 12:23:04;;;;;;;;;;;29.50;47.90;;;;;;5098364;28;19911;-70
2022/09/14 12:25:30;;;;;;;;;;;29.40;47.70;;;;;;5116673;28;20018;-70
2022/09/14 12:27:55;;;;;;;;;;;29.40;47.90;;;;;;5116568;28;19935;-70
2022/09/14 12:30:40;;;;;;;;;;;29.40;47.80;;;;;;5116237;27;19912;-70
2022/09/14 12:33:24;;;;;;;;;;;29.40;47.80;;;;;;5116326;28;19916;-70
2022/09/14 12:35:50;;;;;;;;;;;29.30;47.80;;;;;;5116485;28;20297;-70
2022/09/14 12:38:30;;;;;;;;;;;29.30;47.90;;;;;;5098115;28;19911;-70
2022/09/14 12:41:14;;;;;;;;;;;29.40;48.20;;;;;;5116346;28;19948;-70
2022/09/14 12:43:40;;;;;;;;;;;29.40;48.20;;;;;;5116318;28;19908;-70
2022/09/14 12:46:10;;;;;;;;;;;29.50;48.30;;;;;;5097858;28;20428;-70
2022/09/14 12:48:48;;;;;;;;;;;29.50;48.10;;;;;;5114810;28;20348;-70
2022/09/14 12:51:13;;;;;;;;;;;29.50;48.10;;;;;;5116101;28;20281;-70
2022/09/14 12:53:40;;;;;;;;;;;29.60;48.70;;;;;;5116092;28;19986;-70
2022/09/14 12:56:12;;;;;;;;;;;29.60;48.30;;;;;;5115937;28;19910;-70
2022/09/14 12:58:58;;;;;;;;;;;29.60;48.30;;;;;;5115945;28;19911;-70
2022/09/14 13:01:27;;;;;;;;;;;29.60;48.40;;;;;;5115715;28;20282;-70
2022/09/14 13:03:53;;;;;;;;;;;29.70;48.50;;;;;;5115851;28;19903;-70
2022/09/14 13:06:20;;;;;;;;;;;29.70;48.50;;;;;;5115745;28;20286;-70
2022/09/14 13:08:47;;;;;;;;;;;29.70;48.30;;;;;;5115797;28;20380;-70
2022/09/14 13:11:20;;;;;;;;;;;29.70;48.40;;;;;;5115534;28;20286;-70
2022/09/14 13:13:46;;;;;;;;;;;29.80;48.50;;;;;;5115640;28;19904;-70
2022/09/14 13:16:16;;;;;;;;;;;29.90;48.60;;;;;;5115448;28;19903;-70
2022/09/14 13:18:41;;;;;;;;;;;30.00;48.70;;;;;;5115539;28;20387;-70
2022/09/14 13:21:33;;;;;;;;;;;30.10;48.70;;;;;;5115505;28;19977;-70
2022/09/14 13:23:59;;;;;;;;;;;30.10;48.50;;;;;;5111266;28;19908;-70
2022/09/14 13:26:26;;;;;;;;;;;30.20;48.40;;;;;;5115481;28;20269;-70
2022/09/14 13:28:53;;;;;;;;;;;30.30;48.20;;;;;;5115505;28;19904;-70
2022/09/14 13:31:30;;;;;;;;;;;30.40;48.20;;;;;;5129355;27;20006;-71
2022/09/14 13:33:56;;;;;;;;;;;30.40;48.20;;;;;;5117281;27;19916;-70
2022/09/14 13:36:28;;;;;;;;;;;30.50;48.20;;;;;;5135802;27;20013;-70
2022/09/14 13:38:54;;;;;;;;;;;30.60;48.30;;;;;;5117292;27;20002;-70
2022/09/14 13:41:21;;;;;;;;;;;30.70;48.30;;;;;;5135624;27;20354;-71
2022/09/14 13:43:48;;;;;;;;;;;30.80;48.10;;;;;;5135566;27;19903;-70
2022/09/14 13:46:14;;;;;;;;;;;30.90;48.00;;;;;;5116936;27;19911;-70
2022/09/14 13:48:41;;;;;;;;;;;31.00;47.80;;;;;;5102739;28;19904;-70
2022/09/14 13:51:07;;;;;;;;;;;31.10;47.60;;;;;;5114809;28;19957;-71
2022/09/14 13:53:37;;;;;;;;;;;31.10;47.50;;;;;;5096544;28;20667;-71
2022/09/14 13:56:19;;;;;;;;;;;31.10;47.40;;;;;;5096522;28;19947;-70
2022/09/14 13:58:46;;;;;;;;;;;31.10;47.40;;;;;;5114721;28;19903;-70
2022/09/14 14:01:21;;;;;;;;;;;31.20;47.30;;;;;;5095845;28;19957;-70
2022/09/14 14:03:47;;;;;;;;;;;31.20;47.20;;;;;;5096295;28;20387;-70
2022/09/14 14:06:24;;;;;;;;;;;31.30;47.00;;;;;;5114641;28;19953;-71
2022/09/14 14:09:09;;;;;;;;;;;31.30;47.20;;;;;;5114561;28;20340;-71
2022/09/14 14:11:36;;;;;;;;;;;31.40;47.30;;;;;;5114624;28;20335;-71
2022/09/14 14:14:28;;;;;;;;;;;31.40;47.20;;;;;;5096216;28;19910;-70
2022/09/14 14:17:09;;;;;;;;;;;31.40;47.10;;;;;;5110243;28;19991;-70
2022/09/14 14:19:35;;;;;;;;;;;31.40;47.00;;;;;;5114331;28;19907;-71
2022/09/14 14:22:12;;;;;;;;;;;31.40;47.00;;;;;;5114018;28;19911;-71
2022/09/14 14:24:48;;;;;;;;;;;31.30;46.80;;;;;;5114029;28;19994;-70
2022/09/14 14:27:39;;;;;;;;;;;31.10;46.80;;;;;;5114038;28;20381;-70
2022/09/14 14:30:17;;;;;;;;;;;31.10;47.20;;;;;;5109664;27;20014;-70